Texas General Land Office
 Texas General Land Office
 George P. Bush, Commissioner

 Oil Spill Prevention
 & Response

Texas Automated Buoy System
Real Time Ocean Observations
Supporting Oil Spill Prevention and
Response since 1995
Geochemical and Environmental Research Group

NOAA - NDBC Buoy 42019 -- Texas Automated Buoy System

NBDC Buoy 42019
Freeport, TX
Conditions at 01/20/2019 18:30 UTC (01/20/2019 12:30 CST)
27° 54.7830'N   95° 21.6000'W
60nm South of Freeport, TX
Anemometer height: 5m
Water Depth: 269 feet (82 meters)
Wind: 9.0 m/s (17.5 kts)
          From 0°T (N)
Wind Gust: 11.00 m/s (21.4 kts) Pressure: 1027.6 mb (30.35 inHg)
Air Temp: 8°C (46 °F) Dewpoint: 5°C (41°F) Relative Humidity: 80%
Sea Surf Temp: 20 °C (69 °F) Wave Height: 1.3m (4.3 ft) Wave Period: 6
  


IMPORTANT: Notice to Mariners


Today's Velocity Data

  Buoy     Date      Time     East   North   Speed  Dir(°T) Wave Ht WvPer  Num
|  ID  |          |  (UTC) | (m/s) | (m/s) | (m/s) |(FROM) |  (m)  | secs| pts |
+======+==========+========+=======+=======+=======+=======+=======+=====+=====+
  42019 01/17/2019 00:10:00    6.89   -5.79    9.00     130     1.3     0     1
  42019 01/17/2019 00:20:00    6.89   -5.79    9.00     130     1.3     5     1
  42019 01/17/2019 00:30:00    6.89   -5.79    9.00     130     0.0     0     1
  42019 01/17/2019 00:40:00    6.89   -5.79    9.00     130     0.0     0     1
  42019 01/17/2019 00:50:00    5.79   -6.89    9.00     140     0.0     0     1
  42019 01/17/2019 06:00:00    5.11   -7.62    9.17     146     0.2     1    31
  42019 01/17/2019 06:10:00    3.08   -8.46    9.00     160     0.0     0     1
  42019 01/17/2019 06:20:00    3.08   -8.46    9.00     160     1.7     6     1
  42019 01/17/2019 06:30:00    3.08   -8.46    9.00     160     0.0     0     1
  42019 01/17/2019 06:40:00    3.08   -8.46    9.00     160     0.0     0     1
  42019 01/17/2019 06:50:00    3.08   -8.46    9.00     160     0.0     0     1
  42019 01/17/2019 12:00:00   -3.12   -2.98    4.31     226     0.3     1    31
  42019 01/17/2019 12:10:00   -4.33    2.50    5.00     300     0.0     0     1
  42019 01/17/2019 12:20:00   -4.70    1.71    5.00     290     1.1     6     1
  42019 01/17/2019 12:30:00   -5.20    3.00    6.00     300     0.0     0     1
  42019 01/17/2019 12:40:00   -5.64    2.05    6.00     290     0.0     0     1
  42019 01/17/2019 12:50:00   -5.20    3.00    6.00     300     0.0     0     1
  42019 01/17/2019 18:00:00   -4.72    1.57    4.98     288     0.1     1    31
  42019 01/17/2019 18:10:00   -4.33    2.50    5.00     300     0.0     0     1
  42019 01/17/2019 18:20:00   -4.70    1.71    5.00     290     0.8     5     1
  42019 01/17/2019 18:30:00   -4.70    1.71    5.00     290     0.0     0     1
  42019 01/17/2019 18:40:00   -4.33    2.50    5.00     300     0.0     0     1
  42019 01/17/2019 18:50:00   -3.46    2.00    4.00     300     0.0     0     1
  42019 01/18/2019 00:00:00   -3.78    0.74    3.85     281     0.1     1    31
  42019 01/18/2019 00:10:00   -2.82    1.03    3.00     290     0.0     0     1
  42019 01/18/2019 00:20:00   -2.82    1.03    3.00     290     0.6     6     1
  42019 01/18/2019 00:30:00   -3.00    0.00    3.00     270     0.0     0     1
  42019 01/18/2019 00:40:00   -3.00    0.00    3.00     270     0.0     0     1
  42019 01/18/2019 00:50:00   -2.00    0.00    2.00     270     0.0     0     1
  42019 01/18/2019 06:00:00   -2.40   -2.67    3.58     222     0.1     1    31
  42019 01/18/2019 06:10:00   -1.53   -1.29    2.00     230     0.0     0     1
  42019 01/18/2019 06:20:00   -2.60   -1.50    3.00     240     0.5     5     1
  42019 01/18/2019 06:30:00   -2.30   -1.93    3.00     230     0.0     0     1
  42019 01/18/2019 06:40:00   -1.50   -2.60    3.00     210     0.0     0     1
  42019 01/18/2019 06:50:00   -1.50   -2.60    3.00     210     0.0     0     1
  42019 01/18/2019 12:00:00    5.76    0.69    5.80      83     0.1     1    31
  42019 01/18/2019 12:10:00    3.00    0.00    3.00      90     0.4     0     1
  42019 01/18/2019 12:20:00    2.95    0.52    3.00      80     0.4     5     1
  42019 01/18/2019 12:30:00    1.97    0.35    2.00      80     0.0     0     1
  42019 01/18/2019 12:40:00    2.82    1.03    3.00      70     0.0     0     1
  42019 01/18/2019 12:50:00    2.60    1.50    3.00      60     0.0     0     1
  42019 01/18/2019 18:00:00    2.65   -3.46    4.36     142     0.1     1    31
  42019 01/18/2019 18:10:00    1.22   -6.89    7.00     170     0.0     0     1
  42019 01/18/2019 18:20:00    1.04   -5.91    6.00     170     0.6     3     1
  42019 01/18/2019 18:30:00    1.22   -6.89    7.00     170     0.0     0     1
  42019 01/18/2019 18:40:00    1.22   -6.89    7.00     170     0.0     0     1
  42019 01/18/2019 18:50:00    1.04   -5.91    6.00     170     0.0     0     1
  42019 01/19/2019 00:00:00    1.36   -6.58    6.72     168     0.1     1    31
  42019 01/19/2019 00:10:00    3.42   -9.40   10.00     160     0.0     0     1
  42019 01/19/2019 00:20:00    3.42   -9.40   10.00     160     0.9     4     1
  42019 01/19/2019 00:30:00    1.74   -9.85   10.00     170     0.0     0     1
  42019 01/19/2019 00:40:00    1.56   -8.86    9.00     170     0.0     0     1
  42019 01/19/2019 00:50:00    1.56   -8.86    9.00     170     0.0     0     1
  42019 01/19/2019 06:00:00    0.78  -10.35   10.38     176     0.2     1    31
  42019 01/19/2019 06:10:00   -1.91  -10.83   11.00     190     0.0     0     1
  42019 01/19/2019 06:20:00   -1.91  -10.83   11.00     190     1.9     6     1
  42019 01/19/2019 06:30:00   -1.91  -10.83   11.00     190     0.0     0     1
  42019 01/19/2019 06:40:00   -1.74   -9.85   10.00     190     0.0     0     1
  42019 01/19/2019 06:50:00   -1.91  -10.83   11.00     190     0.0     0     1
  42019 01/19/2019 12:00:00    0.65   -8.81    8.84     176     0.4     1    31
  42019 01/19/2019 12:10:00  -10.83   -1.91   11.00     260     0.0     0     1
  42019 01/19/2019 12:20:00  -12.80    2.26   13.00     280     0.0     0     1
  42019 01/19/2019 12:30:00  -11.28    4.10   12.00     290     0.0     0     1
  42019 01/19/2019 12:40:00   -8.66    5.00   10.00     300     0.0     0     1
  42019 01/19/2019 12:50:00   -7.79    4.50    9.00     300     0.0     0     1
  42019 01/19/2019 18:00:00   -9.30    9.52   13.31     316     0.5     1    31
  42019 01/19/2019 18:10:00   -9.64   11.49   15.00     320     0.0     0     1
  42019 01/19/2019 18:20:00   -9.64   11.49   15.00     320     3.4     8     1
  42019 01/19/2019 18:30:00   -9.64   11.49   15.00     320     0.0     0     1
  42019 01/19/2019 18:40:00   -9.64   11.49   15.00     320     0.0     0     1
  42019 01/19/2019 18:50:00  -10.72    9.00   14.00     310     0.0     0     1
  42019 01/20/2019 00:00:00   -8.96   10.67   13.94     320     0.5     1    31
  42019 01/20/2019 00:10:00   -6.00   10.39   12.00     330     0.0     0     1
  42019 01/20/2019 00:20:00   -6.50   11.26   13.00     330     3.3     7     1
  42019 01/20/2019 00:30:00   -6.50   11.26   13.00     330     0.0     0     1
  42019 01/20/2019 00:40:00   -8.36    9.96   13.00     320     0.0     0     1
  42019 01/20/2019 00:50:00   -8.36    9.96   13.00     320     0.0     0     1
  42019 01/20/2019 06:00:00   -5.79   13.11   14.34     336     0.4     1    31
  42019 01/20/2019 06:10:00   -4.45   12.22   13.00     340     0.0     0     1
  42019 01/20/2019 06:20:00   -4.45   12.22   13.00     340     3.0     7     1
  42019 01/20/2019 06:30:00   -4.10   11.28   12.00     340     0.0     0     1
  42019 01/20/2019 06:40:00   -4.45   12.22   13.00     340     0.0     0     1
  42019 01/20/2019 06:50:00   -4.10   11.28   12.00     340     0.0     0     1
  42019 01/20/2019 12:00:00   -3.54   11.56   12.09     343     0.5     1    31
  42019 01/20/2019 12:10:00   -1.74    9.85   10.00     350     0.0     0     1
  42019 01/20/2019 12:20:00   -1.74    9.85   10.00     350     2.2     7     1
  42019 01/20/2019 12:30:00   -1.74    9.85   10.00     350     0.0     0     1
  42019 01/20/2019 12:40:00   -1.56    8.86    9.00     350     0.0     0     1
  42019 01/20/2019 12:50:00   -1.56    8.86    9.00     350     0.0     0     1
  42019 01/20/2019 18:00:00   -1.14    7.97    8.05     352     0.3     1    31
  42019 01/20/2019 18:10:00    1.22    6.89    7.00      10     0.0     0     1
  42019 01/20/2019 18:20:00    1.22    6.89    7.00      10     1.3     6     1
  42019 01/20/2019 18:30:00    1.39    7.88    8.00      10     0.0     0     1